Saturday, November 17, 2018, 10:12 AM EST
Back to Local

KBGR, Bangor Int'l Airport

Location: Bangor, ME, United States Lat: 44.8
Local Time: 10:12 AM EST (15:12 GMT) Lon: -68.817
Time Zone: US/Eastern Elev: 193 ft

Show me the last for .
Show Decoded

2018-11-17 09:53 METAR KBGR 171453Z 20004KT 10SM BKN042 01/M02 A2992 RMK AO2 SLP135 T00061017
                 53021 =
2018-11-17 08:53 METAR KBGR 171353Z 21004KT 10SM BKN038 BKN050 M01/M02 A2989 RMK AO2 SLP125
                 T10061022 =
2018-11-17 07:53 METAR KBGR 171253Z 00000KT 10SM BKN038 M02/M03 A2988 RMK AO2 SLP120 T10171028 =
2018-11-17 06:53 METAR KBGR 171153Z 18003KT 10SM OVC039 M03/M04 A2986 RMK AO2 SLP114 4/004 60000
                 I6000 T10331039 11028 21078 53034 =
2018-11-17 05:53 METAR KBGR 171053Z 00000KT 10SM OVC035 M03/M04 A2983 RMK AO2 SLP103 T10331039 =
2018-11-17 04:53 METAR KBGR 170953Z 00000KT 10SM FEW035 OVC043 M03/M04 A2977 RMK AO2 SLP085
                 T10331044 =
2018-11-17 03:53 METAR KBGR 170853Z 28003KT 10SM OVC036 M03/M04 A2976 RMK AO2 SLP080 60000 I3000
                 T10331044 53027 =
2018-11-17 02:53 METAR KBGR 170753Z 19003KT 10SM OVC048 M06/M06 A2973 RMK AO2 SLP072 I1000
                 T10561061 =
2018-11-17 01:53 METAR KBGR 170653Z 00000KT 10SM FEW060 M06/M07 A2970 RMK AO2 SNE45 SLP062 P0000
                 T10561067 =
2018-11-17 00:53 METAR KBGR 170553Z 24003KT 9SM -SN BKN055 OVC075 M03/M04 A2968 RMK AO2 SLP053
                 4/004 P0000 60000 T10331044 11028 21033 51026 =
2018-11-16 23:53 METAR KBGR 170453Z 29004KT 4SM -SN BR OVC040 M03/M04 A2966 RMK AO2 SLP046 P0000
                 T10281044 410281050 =
2018-11-16 23:00 METAR KBGR 170400Z 27004KT 2SM -SN BR OVC027 M03/M04 A2964 RMK AO2 P0000
                 T10281039 =
2018-11-16 22:53 METAR KBGR 170353Z 28003KT 2SM -SN BR BKN032 OVC047 M03/M04 A2963 RMK AO2
                 SNB0255 SLP037 P0000 T10281039 =
2018-11-16 22:42 METAR KBGR 170342Z 28004KT 1 3/4SM -SN BR BKN034 OVC047 M03/M04 A2963 RMK AO2
                 SNB0255 P0000 T10281039 =
2018-11-16 21:53 METAR KBGR 170253Z 30004KT 7SM BKN049 OVC070 M03/M04 A2960 RMK AO2 SNE51 SLP026
                 P0000 60000 T10281039 53004 =
2018-11-16 20:59 METAR KBGR 170159Z 29004KT 3SM -SN BR OVC034 M03/M04 A2959 RMK AO2 P0000
                 T10281039 =
2018-11-16 20:53 METAR KBGR 170153Z 29005KT 1 3/4SM -SN BR FEW023 OVC028 M03/M04 A2959 RMK AO2
                 SLP023 P0000 T10281039 =
2018-11-16 20:46 METAR KBGR 170146Z 29005KT 1 3/4SM -SN BR FEW022 OVC028 M03/M04 A2959 RMK AO2
                 P0000 T10281039 =
2018-11-16 20:38 METAR KBGR 170138Z 29004KT 2 1/2SM -SN BR SCT022 OVC030 M03/M04 A2959 RMK AO2
                 P0000 T10281039 =
2018-11-16 19:53 METAR KBGR 170053Z 30005KT 3SM -SN BR OVC015 M03/M04 A2959 RMK AO2 UPB14E19SNB21
                 SLP022 P0000 T10331044 =
2018-11-16 18:53 METAR KBGR 162353Z 27007KT 8SM SCT008 OVC012 M03/M04 A2958 RMK AO2 SNE43 SLP018
                 4/004 P0000 60000 T10331044 11028 21039 53022 =
2018-11-16 18:23 METAR KBGR 162323Z 33011KT 4SM -SN BR SCT008 OVC012 M03/M04 A2956 RMK AO2 P0000
                 T10331044 =
2018-11-16 17:53 METAR KBGR 162253Z 35013KT 6SM -SN BR BKN011 BKN021 OVC039 M03/M04 A2954 RMK AO2
                 UPE2154SNB2154 SLP007 P0000 T10281044 =
2018-11-16 17:32 METAR KBGR 162232Z 33009KT 5SM -SN BR BKN011 BKN021 OVC037 M03/M04 A2954 RMK AO2
                 UPE2154SNB2154 P0000 T10281039 =
2018-11-16 17:00 METAR KBGR 162200Z 36010KT 5SM -SN BR OVC043 M03/M04 A2953 RMK AO2
                 UPE2154SNB2154 P0000 T10281044 =
2018-11-16 16:53 METAR KBGR 162153Z COR 01010KT 5SM -SN BR FEW014 OVC049 M03/M05 A2953 RMK AO2
                 SFC VIS 3 UPB40SNE40 SLP001 P0000 T10281050 =
2018-11-16 16:09 METAR KBGR 162109Z 01015G21KT 2SM -SN BR FEW015 BKN037 OVC049 M03/M06 A2952 RMK
                 AO2 P0000 T10331056 =
2018-11-16 15:53 METAR KBGR 162053Z 01018G25KT 2SM -SN BR SCT015 OVC028 M03/M06 A2951 RMK AO2
                 SLP996 P0000 60000 T10331056 55011 =
2018-11-16 15:36 METAR KBGR 162036Z 01017G24KT 2SM -SN BR FEW011 SCT015 OVC020 M03/M06 A2951 RMK
                 AO2 P0000 T10331056 =
2018-11-16 15:13 METAR KBGR 162013Z 36018KT 1SM R15/5500VP6000FT -SN BR FEW010 OVC015 M03/M06
                 A2951 RMK AO2 P0000 T10331056 =
2018-11-16 14:53 METAR KBGR 161953Z 01020G26KT 1/2SM R15/3000V4500FT SN FZFG VV013 M04/M06 A2950
                 RMK AO2 PK WND 02028/1914 GSE22 SLP992 P0000 T10391056 =
2018-11-16 14:43 METAR KBGR 161943Z 01020G26KT 1/2SM R15/3000V3500FT SN FZFG FEW009 OVC013
                 M03/M05 A2950 RMK AO2 PK WND 02028/1914 GSE22 P0000 T10331050 =
2018-11-16 14:41 METAR KBGR 161941Z COR 36019G26KT 1/2SM R15/3000V3500FT SN FZFG FEW009 OVC013
                 M03/M05 A2951 RMK AO2 PK WND 02028/1914 TWR VIS 1/2 GSE22 P0000 T10331050 =
2018-11-16 14:23 METAR KBGR 161923Z 01017G28KT 1/2SM R15/3500V4000FT SN FZFG FEW010 OVC014
                 M03/M06 A2951 RMK AO2 PK WND 02028/1914 GSE22 P0000 T10331056 =
2018-11-16 14:00 METAR KBGR 161900Z 36017KT 3/4SM R15/3500V4000FT -SNGS BR VV014 M03/M05 A2952
                 RMK AO2 TWR VIS 1 GS LGT P0000 T10331050 =
2018-11-16 13:53 METAR KBGR 161853Z 36018G26KT 1SM R15/3500V4000FT -SNGS BR FEW010 OVC014 M03/M05
                 A2952 RMK AO2 PK WND 35027/1823 SLP998 P0000 T10331050 =
2018-11-16 12:53 METAR KBGR 161753Z 36013KT 1SM R15/3500V4000FT -SNGS BR FEW006 OVC013 M03/M05
                 A2954 RMK AO2 SLP007 GS LGT 4/003 P0000 60000 T10331050 11028 21039 56049 =
2018-11-16 12:13 METAR KBGR 161713Z 36015KT 3/4SM R15/2800V3000FT -SNGS BR FEW006 OVC011 M03/M04
                 A2956 RMK AO2 P0000 T10331044 =
2018-11-16 11:53 METAR KBGR 161653Z 01012KT 3/4SM R15/2800V3500FT -SNGS BR VV011 M03/M04 A2957
                 RMK AO2 PRESFR SLP017 P0000 T10281044 =
2018-11-16 10:53 METAR KBGR 161553Z 01014KT 3/4SM R15/3500V4000FT -SNGS BR FEW009 OVC014 M03/M04
                 A2963 RMK AO2 PLB10E52GSB52 SLP037 GS LGT P0000 T10331044 =

Support USWX by starting your Amazon purchase here.